ADDS METAR Data INFO
IDs: Format: Raw Decoded Include TAF

Data at: 2034 UTC 16 Dec 2017

KWWD 161955Z AUTO 24010KT 10SM CLR 06/M03 A3009 RMK AO2 SLP190 T00561033
KWWD 161855Z AUTO 25012G19KT 10SM CLR 06/M03 A3010 RMK AO2 SLP193 T00561033
KWWD 161755Z AUTO 25012KT 10SM FEW100 06/M03 A3009 RMK AO2 SLP193 T00561028 10056 20000 58025
KWWD 161555Z AUTO 22013KT 10SM OVC110 03/M03 A3015 RMK AO2 SLP212 T00331033
KWWD 161455Z AUTO 27010G17KT 10SM CLR 03/M06 A3017 RMK AO2 SLP218 T00281056 52004
KWWD 161355Z AUTO 25008KT 10SM CLR 02/M05 A3016 RMK AO2 SLP216 T00171050 FZRANO
KWWD 161255Z AUTO 25007KT 10SM CLR 00/M06 A3016 RMK AO2 SLP214 T00001061 FZRANO
KWWD 161155Z AUTO 27008KT 10SM CLR 00/M06 A3015 RMK AO2 SLP213 70003 T00001056 10000 21017 53028 FZRANO
KWWD 161055Z AUTO 28011KT 10SM CLR 00/M04 A3011 RMK AO2 SLP199 T00001044 FZRANO
KWWD 160955Z AUTO 27009KT 10SM CLR M01/M04 A3009 RMK AO2 SLP191 T10111039 FZRANO
KWWD 160855Z AUTO 28009KT 10SM CLR M01/M04 A3007 RMK AO2 SLP185 T10111039 51019 FZRANO
KWWD 160755Z AUTO 27010G16KT 10SM CLR M01/M03 A3005 RMK AO2 SLP179 T10111033 FZRANO
KWWD 160655Z AUTO 26007KT 10SM CLR M02/M03 A3004 RMK AO2 SLP175 T10171033 FZRANO
KWWD 160555Z AUTO 28009KT 10SM CLR M02/M03 A3001 RMK AO2 SLP166 60001 T10171033 11017 21028 53007 FZRANO
KWWD 160455Z AUTO 28007KT 10SM CLR M02/M04 A3000 RMK AO2 SLP163 T10221039 400001044 FZRANO
KWWD 160355Z AUTO 30007G15KT 10SM SCT014 M02/M04 A3000 RMK AO2 SLP162 T10221044 FZRANO
KWWD 160255Z AUTO 30009KT 10SM FEW012 M02/M03 A2999 RMK AO2 SLP159 60001 T10221033 51019 FZRANO
KWWD 160242Z AUTO 29007KT 10SM SCT010 M02/M03 A2999 RMK AO2 FZRANO
KWWD 160155Z AUTO 32006KT 10SM OVC010 M02/M03 A2998 RMK AO2 SNE0058 SLP155 P0000 T10221033 FZRANO
KWWD 160148Z AUTO 31007KT 10SM BKN010 OVC043 M02/M03 A2998 RMK AO2 SNE0058 CIG 008V014 P0000 FZRANO
KWWD 160136Z AUTO 31008KT 10SM BKN008 BKN013 OVC041 M02/M03 A2997 RMK AO2 SNE0058 P0000 FZRANO
KWWD 160122Z AUTO 31005KT 10SM FEW008 OVC041 M03/M03 A2996 RMK AO2 SNE0058 P0000 FZRANO
KWWD 160055Z AUTO 32004KT 9SM -SN FEW039 OVC050 M03/M04 A2995 RMK AO2 SLP144 P0001 T10281039 FZRANO
KWWD 160034Z AUTO VRB03KT 7SM -SN SCT006 BKN035 OVC050 M03/M04 A2995 RMK AO2 P0001 FZRANO
KWWD 160013Z AUTO 34006KT 3SM -SN BR FEW004 BKN019 OVC034 M03/M04 A2994 RMK AO2 CIG 015V025 P0001 FZRANO
KWWD 160006Z AUTO 35006KT 2 1/2SM -SN BR FEW004 BKN014 OVC028 M03/M04 A2994 RMK AO2 P0001 FZRANO
KWWD 160000Z AUTO 35006KT 1 3/4SM -SN BR FEW004 BKN015 OVC021 M03/M04 A2993 RMK AO2 P0000 FZRANO
KWWD 152355Z AUTO 34005KT 1 1/4SM -SN BR BKN012 OVC018 M03/M04 A2994 RMK AO2 SLP140 P0001 60002 T10281039 11006 21033 51015 FZRANO
KWWD 152345Z AUTO 35006KT 1SM -SN BR FEW004 BKN013 OVC020 M03/M04 A2994 RMK AO2 P0001 FZRANO
KWWD 152324Z AUTO 34008KT 1 1/2SM -SN BR FEW006 BKN020 OVC032 M03/M04 A2994 RMK AO2 P0000 FZRANO
KWWD 152321Z AUTO 35007KT 2SM -SN BR FEW006 SCT020 OVC032 M03/M04 A2994 RMK AO2 P0000 FZRANO
KWWD 152305Z AUTO 34006KT 3SM -SN BR FEW006 OVC030 M03/M04 A2993 RMK AO2 P0000 FZRANO TSNO
KWWD 152255Z AUTO 35007KT 3SM -SN BR OVC030 M03/M04 A2992 RMK AO2 SLP135 P0001 T10281039 FZRANO
KWWD 152244Z AUTO 35006KT 5SM -SN BR FEW008 OVC030 M03/M04 A2992 RMK AO2 P0001 FZRANO TSNO
KWWD 152223Z AUTO 35011KT 5SM -SN BR FEW008 BKN024 OVC030 M03/M04 A2992 RMK AO2 P0001 FZRANO
KWWD 152155Z AUTO 34010KT 8SM -SN OVC026 M03/M06 A2992 RMK AO2 SLP134 P0000 T10281056 FZRANO
KWWD 152113Z AUTO 01010KT 6SM -SN OVC028 M02/M07 A2989 RMK AO2 P0000 FZRANO
KWWD 152055Z AUTO 35006KT 9SM -SN OVC030 M02/M07 A2989 RMK AO2 SNB38 SLP125 P0000 60000 T10171072 56025 FZRANO
KWWD 151955Z AUTO 03007KT 10SM OVC032 M01/M06 A2991 RMK AO2 SNB00E22 SLP130 P0000 T10061056 FZRANO
KWWD 151855Z AUTO 04008KT 10SM BKN040 OVC065 M01/M05 A2992 RMK AO2 SLP135 T10061050 FZRANO
KWWD 151755Z AUTO 07008KT 10SM OVC065 M01/M06 A2997 RMK AO2 SLP150 T10111056 10000 21039 58046 FZRANO
KWWD 151655Z AUTO 04009KT 10SM OVC070 M01/M06 A3000 RMK AO2 SLP161 T10061056 FZRANO
KWWD 151555Z AUTO 05007KT 10SM FEW060 OVC085 M01/M06 A3007 RMK AO2 SLP186 T10061061 FZRANO
KWWD 151455Z AUTO 07006KT 10SM OVC085 M01/M08 A3010 RMK AO2 SLP196 T10111078 58011 FZRANO
KWWD 151355Z AUTO 05005KT 10SM OVC085 M03/M11 A3012 RMK AO2 SLP201 T10281106 FZRANO TSNO
KWWD 151255Z AUTO 03006KT 10SM OVC085 M04/M12 A3012 RMK AO2 SLP203 T10391117 FZRANO
KWWD 151155Z AUTO 04006KT 10SM OVC090 M04/M12 A3013 RMK AO2 SLP207 T10391117 11022 21044 56004 FZRANO
KWWD 151055Z AUTO 03004KT 10SM BKN090 M04/M11 A3014 RMK AO2 SLP208 T10441111 FZRANO
KWWD 150955Z AUTO 02005KT 10SM CLR M04/M11 A3014 RMK AO2 SLP208 T10391111 FZRANO
KWWD 150855Z AUTO 01004KT 10SM CLR M03/M11 A3015 RMK AO2 SLP211 T10331111 50010 FZRANO